Aviation Digital Data Service (ADDS)

Output produced by METARs form (1051 UTC 28 November 2014)
found at http://aviationweather.gov/adds/metars/
 
KHPN 280524Z 2806/2906 32007KT P6SM SCT035 BKN100 
     FM281400 32013G19KT P6SM BKN035 
     FM290000 32008KT P6SM BKN250 AMD NOT SKED